Time;durP1;ratioP1;P1;durP2;ratioP2;P2;SDS_P1;SDS_P2;PMS_P1;PMS_P2;Temp;Humidity;BMP_temperature;BMP_pressure;BME280_temperature;BME280_humidity;BME280_pressure;Samples;Min_cycle;Max_cycle;Signal;HPM_P1;HPM_P2
2021/07/13 00:02:43;;;;;;;18.92;15.93;;;;;;;;;;4267692;33;20211;-81
2021/07/13 00:05:34;;;;;;;23.27;17.17;;;;;;;;;;4318300;33;20164;-81
2021/07/13 00:08:12;;;;;;;20.80;16.00;;;;;;;;;;4327791;32;20155;-81
2021/07/13 00:14:03;;;;;;;20.52;16.35;;;;;;;;;;4330198;32;20177;-81
2021/07/13 00:16:28;;;;;;;18.65;15.93;;;;;;;;;;4327966;33;20156;-82
2021/07/13 00:18:54;;;;;;;16.58;14.23;;;;;;;;;;4327557;33;20178;-82
2021/07/13 00:21:19;;;;;;;17.12;15.02;;;;;;;;;;4330318;33;20190;-80
2021/07/13 00:23:57;;;;;;;19.73;15.25;;;;;;;;;;4343362;33;20183;-81
2021/07/13 00:26:31;;;;;;;19.12;16.33;;;;;;;;;;4343708;33;20206;-81
2021/07/13 00:28:57;;;;;;;19.58;17.48;;;;;;;;;;4343296;33;20174;-81
2021/07/13 00:31:25;;;;;;;23.52;18.62;;;;;;;;;;4343226;33;20159;-82
2021/07/13 00:34:05;;;;;;;;;;;;;;;;;;;;;
2021/07/13 00:36:43;;;;;;;20.30;17.40;;;;;;;;;;4350389;32;20218;-81
2021/07/13 00:39:29;;;;;;;19.65;17.55;;;;;;;;;;4343682;33;20178;-80
2021/07/13 00:41:54;;;;;;;20.37;17.23;;;;;;;;;;4344320;33;20164;-81
2021/07/13 00:44:28;;;;;;;19.08;16.98;;;;;;;;;;4343010;33;20191;-81
2021/07/13 00:46:59;;;;;;;20.92;18.37;;;;;;;;;;4343588;33;20590;-81
2021/07/13 00:49:27;;;;;;;19.50;17.23;;;;;;;;;;4343329;33;20194;-81
2021/07/13 00:52:23;;;;;;;;;;;;;;;;;;;;;
2021/07/13 00:54:49;;;;;;;21.45;17.42;;;;;;;;;;4344585;33;20164;-82
2021/07/13 01:00:21;;;;;;;24.37;20.12;;;;;;;;;;4336298;33;20171;-83
2021/07/13 01:02:48;;;;;;;20.23;17.23;;;;;;;;;;4343184;33;20658;-84
2021/07/13 01:05:24;;;;;;;21.80;17.52;;;;;;;;;;4343478;33;20451;-83
2021/07/13 01:08:07;;;;;;;19.42;16.42;;;;;;;;;;4343708;33;20155;-83
2021/07/13 01:10:59;;;;;;;27.10;20.60;;;;;;;;;;4344629;33;20159;-82
2021/07/13 01:13:38;;;;;;;24.83;19.48;;;;;;;;;;4344687;33;20131;-81
2021/07/13 01:16:19;;;;;;;22.30;17.62;;;;;;;;;;4343562;33;20194;-82
2021/07/13 01:19:11;;;;;;;23.10;18.27;;;;;;;;;;4343195;33;20155;-81
2021/07/13 01:21:53;;;;;;;20.60;17.30;;;;;;;;;;4325725;33;20167;-81
2021/07/13 01:24:48;;;;;;;24.12;18.37;;;;;;;;;;4343480;33;20242;-81
2021/07/13 01:27:22;;;;;;;28.90;22.13;;;;;;;;;;4332787;33;20250;-81
2021/07/13 01:29:48;;;;;;;28.95;21.67;;;;;;;;;;4342641;33;20186;-81
2021/07/13 01:32:18;;;;;;;21.73;18.08;;;;;;;;;;4342751;33;20163;-81
2021/07/13 01:34:55;;;;;;;23.95;19.08;;;;;;;;;;4343954;33;20135;-81
2021/07/13 01:37:30;;;;;;;26.08;19.05;;;;;;;;;;4342975;33;20194;-81
2021/07/13 01:39:56;;;;;;;25.62;19.92;;;;;;;;;;4343438;33;20179;-82
2021/07/13 01:42:23;;;;;;;22.77;17.98;;;;;;;;;;4342450;33;20229;-80
2021/07/13 01:44:50;;;;;;;25.85;19.77;;;;;;;;;;4342274;33;20175;-81
2021/07/13 01:47:16;;;;;;;29.25;22.15;;;;;;;;;;4342594;33;20191;-81
2021/07/13 01:49:41;;;;;;;28.85;22.92;;;;;;;;;;4343254;33;20175;-81
2021/07/13 01:52:07;;;;;;;28.23;20.35;;;;;;;;;;4342497;33;20464;-81
2021/07/13 01:54:33;;;;;;;29.42;22.87;;;;;;;;;;4342550;32;20179;-81
2021/07/13 01:57:02;;;;;;;32.78;24.77;;;;;;;;;;4342904;32;20183;-80
2021/07/13 01:59:29;;;;;;;30.67;22.50;;;;;;;;;;4342698;33;20175;-81
2021/07/13 02:02:13;;;;;;;30.95;23.75;;;;;;;;;;4342268;33;20163;-81
2021/07/13 02:04:41;;;;;;;29.35;22.20;;;;;;;;;;4341610;33;20152;-81
2021/07/13 02:07:08;;;;;;;27.75;22.13;;;;;;;;;;4342650;32;20223;-80
2021/07/13 02:09:34;;;;;;;28.20;22.77;;;;;;;;;;4342504;32;20194;-81
2021/07/13 02:12:00;;;;;;;26.67;21.12;;;;;;;;;;4330094;33;20282;-81
2021/07/13 02:14:30;;;;;;;30.67;23.02;;;;;;;;;;4342326;33;20592;-81
2021/07/13 02:16:55;;;;;;;33.83;26.08;;;;;;;;;;4342516;32;20631;-81
2021/07/13 02:19:21;;;;;;;38.00;28.08;;;;;;;;;;4342576;32;20156;-81
2021/07/13 02:22:08;;;;;;;44.50;31.02;;;;;;;;;;4342196;33;20155;-81
2021/07/13 02:24:33;;;;;;;42.72;31.27;;;;;;;;;;4341845;33;20222;-80
2021/07/13 02:27:03;;;;;;;44.25;32.22;;;;;;;;;;4342687;33;20156;-80
2021/07/13 02:29:35;;;;;;;44.00;31.73;;;;;;;;;;4343594;33;20162;-80
2021/07/13 02:32:02;;;;;;;41.20;29.35;;;;;;;;;;4341885;33;20181;-81
2021/07/13 02:34:36;;;;;;;55.20;38.72;;;;;;;;;;4341927;33;20175;-80
2021/07/13 02:37:05;;;;;;;56.92;38.28;;;;;;;;;;4342924;33;20155;-80
2021/07/13 02:39:31;;;;;;;55.35;37.80;;;;;;;;;;4342283;33;20316;-80
2021/07/13 02:41:59;;;;;;;52.70;36.42;;;;;;;;;;4326073;33;20507;-81
2021/07/13 02:44:26;;;;;;;53.00;36.13;;;;;;;;;;4326262;33;20144;-80
2021/07/13 02:46:52;;;;;;;54.45;37.08;;;;;;;;;;4326309;33;20554;-81
2021/07/13 02:49:20;;;;;;;55.67;36.83;;;;;;;;;;4326256;33;20156;-81
2021/07/13 02:51:46;;;;;;;54.20;37.42;;;;;;;;;;4325920;33;20222;-81
2021/07/13 02:54:12;;;;;;;54.20;37.80;;;;;;;;;;4326489;33;20155;-80
2021/07/13 02:56:40;;;;;;;86.57;53.42;;;;;;;;;;4326702;33;20230;-80
2021/07/13 02:59:07;;;;;;;80.47;46.97;;;;;;;;;;4326339;33;20148;-81
2021/07/13 03:01:37;;;;;;;60.75;40.15;;;;;;;;;;4325758;33;20175;-81
2021/07/13 03:04:03;;;;;;;78.47;47.30;;;;;;;;;;4314326;32;20156;-81
2021/07/13 03:06:29;;;;;;;71.00;45.38;;;;;;;;;;4326035;33;20606;-80
2021/07/13 03:08:55;;;;;;;69.95;45.30;;;;;;;;;;4326229;33;20194;-80
2021/07/13 03:11:21;;;;;;;79.55;47.35;;;;;;;;;;4325926;33;20170;-81
2021/07/13 03:13:54;;;;;;;68.28;44.03;;;;;;;;;;4326144;33;20186;-80
2021/07/13 03:16:20;;;;;;;81.15;46.92;;;;;;;;;;4327115;33;20159;-81
2021/07/13 03:18:46;;;;;;;67.75;43.92;;;;;;;;;;4332437;33;20267;-81
2021/07/13 03:21:12;;;;;;;83.35;50.03;;;;;;;;;;4343983;33;20170;-81
2021/07/13 03:23:39;;;;;;;79.68;48.33;;;;;;;;;;4344023;33;20156;-81
2021/07/13 03:26:06;;;;;;;82.03;50.30;;;;;;;;;;4344313;33;20190;-81
2021/07/13 03:28:32;;;;;;;88.50;53.22;;;;;;;;;;4344391;33;20179;-81
2021/07/13 03:30:58;;;;;;;69.50;44.42;;;;;;;;;;4344920;33;20199;-81
2021/07/13 03:33:23;;;;;;;69.05;45.85;;;;;;;;;;4343666;32;20592;-79
2021/07/13 03:35:49;;;;;;;89.28;50.95;;;;;;;;;;4344323;33;20201;-80
2021/07/13 03:38:15;;;;;;;75.60;46.65;;;;;;;;;;4344337;33;20563;-80
2021/07/13 03:40:52;;;;;;;83.68;48.80;;;;;;;;;;4344087;33;20174;-80
2021/07/13 03:43:20;;;;;;;92.57;54.80;;;;;;;;;;4344653;33;20642;-80
2021/07/13 03:45:45;;;;;;;116.88;62.03;;;;;;;;;;4343726;33;20339;-80
2021/07/13 03:48:17;;;;;;;129.93;64.97;;;;;;;;;;4343797;33;20581;-80
2021/07/13 03:50:43;;;;;;;145.07;73.97;;;;;;;;;;4343512;33;20182;-79
2021/07/13 03:53:08;;;;;;;113.55;61.78;;;;;;;;;;4344271;33;20235;-80
2021/07/13 03:55:33;;;;;;;107.50;59.88;;;;;;;;;;4344277;33;20164;-80
2021/07/13 03:58:10;;;;;;;107.53;57.83;;;;;;;;;;4343542;33;20155;-80
2021/07/13 04:00:36;;;;;;;104.87;58.97;;;;;;;;;;4343542;33;20190;-80
2021/07/13 04:03:10;;;;;;;105.53;60.38;;;;;;;;;;4343278;33;20206;-82
2021/07/13 04:05:56;;;;;;;110.70;60.35;;;;;;;;;;4345213;33;20178;-79
2021/07/13 04:08:35;;;;;;;105.85;59.50;;;;;;;;;;4343851;33;20640;-80
2021/07/13 04:11:07;;;;;;;115.30;63.58;;;;;;;;;;4344272;33;20159;-80
2021/07/13 04:13:36;;;;;;;103.43;57.42;;;;;;;;;;4343330;33;20248;-81
2021/07/13 04:16:01;;;;;;;128.95;66.75;;;;;;;;;;4343659;33;20155;-80
2021/07/13 04:18:26;;;;;;;105.35;60.10;;;;;;;;;;4343393;33;20641;-81
2021/07/13 04:20:52;;;;;;;104.95;60.58;;;;;;;;;;4343688;33;20179;-81
2021/07/13 04:23:17;;;;;;;92.78;52.97;;;;;;;;;;4343565;33;20152;-81
2021/07/13 04:25:58;;;;;;;119.93;63.13;;;;;;;;;;4343049;33;20588;-80
2021/07/13 04:28:23;;;;;;;102.87;59.78;;;;;;;;;;4342581;33;20155;-80
2021/07/13 04:30:48;;;;;;;100.05;57.35;;;;;;;;;;4343021;33;20228;-80
2021/07/13 04:33:21;;;;;;;85.60;53.40;;;;;;;;;;4343609;33;20186;-83
2021/07/13 04:41:58;;;;;;;75.95;48.35;;;;;;;;;;4336829;33;20213;-80
2021/07/13 04:44:23;;;;;;;74.80;46.63;;;;;;;;;;4336882;33;20190;-80
2021/07/13 04:46:49;;;;;;;70.65;45.50;;;;;;;;;;4343236;33;20238;-80
2021/07/13 04:49:25;;;;;;;84.65;49.63;;;;;;;;;;4343187;33;20507;-81
2021/07/13 04:52:06;;;;;;;72.28;45.42;;;;;;;;;;4343716;33;20151;-81
2021/07/13 04:54:37;;;;;;;81.80;49.50;;;;;;;;;;4344690;33;20144;-82
2021/07/13 04:57:03;;;;;;;67.55;43.10;;;;;;;;;;4343390;33;20208;-82
2021/07/13 04:59:29;;;;;;;64.90;44.47;;;;;;;;;;4342759;33;20576;-81
2021/07/13 05:01:56;;;;;;;66.10;44.53;;;;;;;;;;4343077;33;20262;-81
2021/07/13 05:04:22;;;;;;;63.42;43.08;;;;;;;;;;4342859;33;20573;-81
2021/07/13 05:06:47;;;;;;;65.55;43.63;;;;;;;;;;4343322;33;20194;-83
2021/07/13 05:09:13;;;;;;;64.20;42.22;;;;;;;;;;4343318;33;20182;-81
2021/07/13 05:11:38;;;;;;;68.12;45.15;;;;;;;;;;4342844;33;20485;-81
2021/07/13 05:14:04;;;;;;;71.65;45.65;;;;;;;;;;4343400;33;20182;-81
2021/07/13 05:16:30;;;;;;;69.25;46.63;;;;;;;;;;4343454;33;20291;-81
2021/07/13 05:18:56;;;;;;;59.55;40.28;;;;;;;;;;4342884;33;20221;-80
2021/07/13 05:21:22;;;;;;;62.78;40.72;;;;;;;;;;4344009;33;20254;-80
2021/07/13 05:23:50;;;;;;;55.72;38.10;;;;;;;;;;4343079;33;20155;-81
2021/07/13 05:26:15;;;;;;;52.22;37.40;;;;;;;;;;4342686;33;20257;-80
2021/07/13 05:28:41;;;;;;;66.60;42.13;;;;;;;;;;4343100;33;20204;-81
2021/07/13 05:31:09;;;;;;;55.55;37.80;;;;;;;;;;4342650;33;20257;-80
2021/07/13 05:33:34;;;;;;;50.75;34.38;;;;;;;;;;4342377;33;20518;-80
2021/07/13 05:36:01;;;;;;;53.40;34.60;;;;;;;;;;4342576;33;20160;-80
2021/07/13 05:38:26;;;;;;;51.22;34.80;;;;;;;;;;4342070;33;20674;-80
2021/07/13 05:40:52;;;;;;;51.53;35.55;;;;;;;;;;4342897;33;20155;-80
2021/07/13 05:43:17;;;;;;;47.08;33.38;;;;;;;;;;4342411;33;20159;-81
2021/07/13 05:45:45;;;;;;;56.30;35.50;;;;;;;;;;4342614;33;20588;-80
2021/07/13 05:48:11;;;;;;;54.50;37.17;;;;;;;;;;4343489;33;20143;-80
2021/07/13 05:50:39;;;;;;;52.05;34.58;;;;;;;;;;4344553;33;20528;-80
2021/07/13 05:53:04;;;;;;;56.78;37.05;;;;;;;;;;4344147;33;20561;-77
2021/07/13 05:55:29;;;;;;;54.58;36.13;;;;;;;;;;4343168;33;20132;-78
2021/07/13 05:57:55;;;;;;;51.65;33.65;;;;;;;;;;4341954;33;20677;-78
2021/07/13 06:00:21;;;;;;;56.13;36.92;;;;;;;;;;4342520;33;20155;-78
2021/07/13 06:02:49;;;;;;;51.22;34.63;;;;;;;;;;4341662;33;20207;-79
2021/07/13 06:05:14;;;;;;;52.13;36.42;;;;;;;;;;4330805;33;20156;-78
2021/07/13 06:07:49;;;;;;;52.00;35.13;;;;;;;;;;4341406;33;20216;-78
2021/07/13 06:10:16;;;;;;;49.30;34.63;;;;;;;;;;4342085;33;20171;-78
2021/07/13 06:12:41;;;;;;;51.53;35.00;;;;;;;;;;4342495;33;20234;-77
2021/07/13 06:15:07;;;;;;;56.90;39.00;;;;;;;;;;4335459;33;20166;-78
2021/07/13 06:17:32;;;;;;;50.65;34.30;;;;;;;;;;4339697;33;20155;-77
2021/07/13 06:19:58;;;;;;;59.42;40.63;;;;;;;;;;4341977;33;20151;-78
2021/07/13 06:22:26;;;;;;;51.65;35.85;;;;;;;;;;4341746;33;20147;-78
2021/07/13 06:24:51;;;;;;;52.22;35.75;;;;;;;;;;4343366;33;20128;-77
2021/07/13 06:27:17;;;;;;;48.17;33.97;;;;;;;;;;4341778;33;20178;-77
2021/07/13 06:29:42;;;;;;;54.40;35.45;;;;;;;;;;4341744;33;20163;-77
2021/07/13 06:32:07;;;;;;;53.15;36.85;;;;;;;;;;4341437;33;20606;-78
2021/07/13 06:34:33;;;;;;;58.87;36.78;;;;;;;;;;4320248;32;20155;-77
2021/07/13 06:37:01;;;;;;;53.17;34.45;;;;;;;;;;4333312;33;20163;-78
2021/07/13 06:39:26;;;;;;;55.20;37.05;;;;;;;;;;4341653;33;20147;-78
2021/07/13 06:41:53;;;;;;;53.75;35.63;;;;;;;;;;4341818;32;20187;-79
2021/07/13 06:44:22;;;;;;;111.10;39.90;;;;;;;;;;4343133;33;20549;-80
2021/07/13 06:46:49;;;;;;;50.38;34.25;;;;;;;;;;4342452;33;20144;-78
2021/07/13 06:49:15;;;;;;;55.10;35.92;;;;;;;;;;4341445;33;20197;-80
2021/07/13 06:51:40;;;;;;;51.50;33.35;;;;;;;;;;4343462;32;20563;-74
2021/07/13 06:54:06;;;;;;;73.15;35.28;;;;;;;;;;4345241;33;20599;-78
2021/07/13 06:56:31;;;;;;;60.25;37.45;;;;;;;;;;4352173;32;20162;-76
2021/07/13 06:58:56;;;;;;;48.08;32.33;;;;;;;;;;4344287;32;20167;-76
2021/07/13 07:04:16;;;;;;;48.53;34.28;;;;;;;;;;4348948;32;20573;-77
2021/07/13 07:06:44;;;;;;;55.50;36.67;;;;;;;;;;4343607;33;20181;-77
2021/07/13 07:09:09;;;;;;;57.67;36.13;;;;;;;;;;4343998;33;20175;-77
2021/07/13 07:11:35;;;;;;;50.03;35.42;;;;;;;;;;4344394;32;20187;-77
2021/07/13 07:14:00;;;;;;;55.67;39.60;;;;;;;;;;4344384;32;20163;-75
2021/07/13 07:16:25;;;;;;;50.92;34.95;;;;;;;;;;4344151;33;20229;-77
2021/07/13 07:18:50;;;;;;;131.65;42.05;;;;;;;;;;4343703;33;20151;-75
2021/07/13 07:21:16;;;;;;;55.72;33.83;;;;;;;;;;4344420;32;20247;-77
2021/07/13 07:23:53;;;;;;;46.13;33.35;;;;;;;;;;4343497;33;20156;-78
2021/07/13 07:26:18;;;;;;;54.25;36.83;;;;;;;;;;4344029;33;20147;-76
2021/07/13 07:28:44;;;;;;;53.10;36.10;;;;;;;;;;4334654;32;20182;-78
2021/07/13 07:31:10;;;;;;;56.72;36.38;;;;;;;;;;4337704;33;20139;-76
2021/07/13 07:33:35;;;;;;;59.05;37.15;;;;;;;;;;4343503;33;20151;-77
2021/07/13 07:36:00;;;;;;;53.10;36.13;;;;;;;;;;4343712;33;20160;-77
2021/07/13 07:38:26;;;;;;;57.42;37.05;;;;;;;;;;4342019;33;20229;-76
2021/07/13 07:40:51;;;;;;;58.40;37.78;;;;;;;;;;4335930;32;20156;-76
2021/07/13 07:43:20;;;;;;;50.85;35.17;;;;;;;;;;4341424;32;20164;-77
2021/07/13 07:45:45;;;;;;;48.58;35.50;;;;;;;;;;4329250;32;20160;-76
2021/07/13 07:48:11;;;;;;;52.22;37.20;;;;;;;;;;4335626;32;20185;-76
2021/07/13 07:50:37;;;;;;;52.50;35.25;;;;;;;;;;4343271;32;20498;-76
2021/07/13 07:53:02;;;;;;;52.33;36.38;;;;;;;;;;4344352;33;20144;-77
2021/07/13 07:55:28;;;;;;;53.47;36.40;;;;;;;;;;4343576;33;20156;-78
2021/07/13 07:57:53;;;;;;;52.22;37.35;;;;;;;;;;4343987;33;20227;-78
2021/07/13 08:03:08;;;;;;;51.83;37.00;;;;;;;;;;4341114;32;20511;-75
2021/07/13 08:05:37;;;;;;;51.63;36.40;;;;;;;;;;4343936;33;20194;-77
2021/07/13 08:08:02;;;;;;;54.80;36.83;;;;;;;;;;4343314;32;20160;-76
2021/07/13 08:10:28;;;;;;;51.63;38.22;;;;;;;;;;4343611;32;20202;-77
2021/07/13 08:12:53;;;;;;;55.28;36.25;;;;;;;;;;4343425;33;20657;-77
2021/07/13 08:15:20;;;;;;;50.12;37.00;;;;;;;;;;4344400;33;20131;-78
2021/07/13 08:17:56;;;;;;;50.45;36.90;;;;;;;;;;4343594;33;20285;-77
2021/07/13 08:20:21;;;;;;;55.10;38.50;;;;;;;;;;4343600;33;20267;-77
2021/07/13 08:22:47;;;;;;;49.92;37.13;;;;;;;;;;4343761;33;20487;-77
2021/07/13 08:25:13;;;;;;;53.30;36.53;;;;;;;;;;4343719;33;20230;-77
2021/07/13 08:27:39;;;;;;;47.15;35.45;;;;;;;;;;4343872;33;20152;-77
2021/07/13 08:30:04;;;;;;;45.72;34.40;;;;;;;;;;4342969;33;20503;-77
2021/07/13 08:32:29;;;;;;;48.10;34.03;;;;;;;;;;4342577;33;20213;-77
2021/07/13 08:34:55;;;;;;;50.53;36.20;;;;;;;;;;4342138;32;20202;-77
2021/07/13 08:37:21;;;;;;;47.60;33.45;;;;;;;;;;4339958;32;20155;-77
2021/07/13 08:39:47;;;;;;;46.22;33.08;;;;;;;;;;4337030;33;20183;-76
2021/07/13 08:42:13;;;;;;;43.70;31.98;;;;;;;;;;4332408;33;20172;-77
2021/07/13 08:44:38;;;;;;;50.45;36.10;;;;;;;;;;4343418;33;20182;-77
2021/07/13 08:47:06;;;;;;;45.80;32.65;;;;;;;;;;4342816;33;20233;-77
2021/07/13 08:49:35;;;;;;;47.05;32.17;;;;;;;;;;4342898;33;20163;-78
2021/07/13 08:52:00;;;;;;;48.30;33.45;;;;;;;;;;4343017;33;20514;-78
2021/07/13 08:54:26;;;;;;;50.60;34.53;;;;;;;;;;4343531;33;20187;-78
2021/07/13 08:56:51;;;;;;;46.75;33.60;;;;;;;;;;4342953;33;20154;-77
2021/07/13 08:59:16;;;;;;;46.05;31.52;;;;;;;;;;4343976;33;20426;-77
2021/07/13 09:01:42;;;;;;;42.05;31.48;;;;;;;;;;4342940;33;20163;-77
2021/07/13 09:04:09;;;;;;;41.70;29.70;;;;;;;;;;4342857;33;20160;-77
2021/07/13 09:06:53;;;;;;;41.75;28.98;;;;;;;;;;4336914;32;20158;-78
2021/07/13 09:09:22;;;;;;;44.90;31.27;;;;;;;;;;4335325;32;20225;-77
2021/07/13 09:12:08;;;;;;;45.12;32.30;;;;;;;;;;4328164;33;20182;-78
2021/07/13 09:14:50;;;;;;;44.17;30.95;;;;;;;;;;4305702;33;20198;-78
2021/07/13 09:17:26;;;;;;;44.03;32.00;;;;;;;;;;4329486;33;20239;-78
2021/07/13 09:20:05;;;;;;;45.88;30.88;;;;;;;;;;4328271;33;20163;-78
2021/07/13 09:22:34;;;;;;;44.88;32.15;;;;;;;;;;4328396;33;20178;-78
2021/07/13 09:24:59;;;;;;;44.17;30.45;;;;;;;;;;4328386;33;20223;-77
2021/07/13 09:27:28;;;;;;;44.70;30.15;;;;;;;;;;4337012;32;20166;-79
2021/07/13 09:29:54;;;;;;;43.08;29.58;;;;;;;;;;4327720;33;20656;-78
2021/07/13 09:32:31;;;;;;;43.38;30.00;;;;;;;;;;4335027;33;20152;-77
2021/07/13 09:35:00;;;;;;;41.83;28.75;;;;;;;;;;4342897;33;20273;-79
2021/07/13 09:37:36;;;;;;;41.47;28.12;;;;;;;;;;4342475;33;20190;-77
2021/07/13 09:40:06;;;;;;;41.00;29.45;;;;;;;;;;4342506;32;20155;-77
2021/07/13 09:42:33;;;;;;;43.22;29.48;;;;;;;;;;4342150;33;20167;-77
2021/07/13 09:45:27;;;;;;;47.80;32.53;;;;;;;;;;4342412;33;20156;-77
2021/07/13 09:47:55;;;;;;;45.15;30.30;;;;;;;;;;4341026;33;20299;-72
2021/07/13 09:50:59;;;;;;;46.97;30.77;;;;;;;;;;4336702;32;20183;-77
2021/07/13 09:53:34;;;;;;;45.10;29.95;;;;;;;;;;4344077;33;20194;-78
2021/07/13 09:56:11;;;;;;;39.67;29.52;;;;;;;;;;4330775;33;20147;-77
2021/07/13 09:58:52;;;;;;;44.35;30.08;;;;;;;;;;4327746;32;20143;-77
2021/07/13 10:01:21;;;;;;;40.42;28.52;;;;;;;;;;4330096;32;20178;-77
2021/07/13 10:03:46;;;;;;;45.97;31.80;;;;;;;;;;4341967;33;20282;-77
2021/07/13 10:06:12;;;;;;;46.60;31.02;;;;;;;;;;4342095;32;20644;-77
2021/07/13 10:08:37;;;;;;;39.40;28.40;;;;;;;;;;4342538;33;20177;-77
2021/07/13 10:11:03;;;;;;;39.30;28.77;;;;;;;;;;4340252;33;20155;-75
2021/07/13 10:13:28;;;;;;;40.20;28.70;;;;;;;;;;4341995;33;20182;-77
2021/07/13 10:15:54;;;;;;;41.35;29.95;;;;;;;;;;4343425;33;20140;-77
2021/07/13 10:18:20;;;;;;;40.10;29.63;;;;;;;;;;4336470;33;20205;-77
2021/07/13 10:20:47;;;;;;;39.67;28.90;;;;;;;;;;4340132;33;20242;-76
2021/07/13 10:23:12;;;;;;;39.70;28.08;;;;;;;;;;4327509;32;20156;-77
2021/07/13 10:25:39;;;;;;;37.40;27.62;;;;;;;;;;4329943;33;20179;-79
2021/07/13 10:28:05;;;;;;;39.13;27.37;;;;;;;;;;4342439;32;20159;-78
2021/07/13 10:30:30;;;;;;;42.78;29.70;;;;;;;;;;4341996;33;20580;-76
2021/07/13 10:32:59;;;;;;;38.80;28.77;;;;;;;;;;4327146;32;20241;-78
2021/07/13 10:36:00;;;;;;;38.35;27.67;;;;;;;;;;4327829;33;20152;-77
2021/07/13 10:38:25;;;;;;;37.13;27.70;;;;;;;;;;4320776;32;20181;-78
2021/07/13 10:40:58;;;;;;;32.95;24.80;;;;;;;;;;4343031;33;20186;-77
2021/07/13 10:43:35;;;;;;;34.45;25.05;;;;;;;;;;4342307;33;20321;-79
2021/07/13 10:46:04;;;;;;;33.88;25.35;;;;;;;;;;4341634;33;20181;-78
2021/07/13 10:48:30;;;;;;;35.78;25.58;;;;;;;;;;4341841;33;20224;-78
2021/07/13 10:50:57;;;;;;;37.53;27.37;;;;;;;;;;4341252;33;20226;-77
2021/07/13 10:53:29;;;;;;;41.15;27.67;;;;;;;;;;4341015;32;20208;-78
2021/07/13 10:56:30;;;;;;;37.10;27.23;;;;;;;;;;4341660;32;20152;-75
2021/07/13 10:58:56;;;;;;;37.22;25.73;;;;;;;;;;4299849;33;20170;-77
2021/07/13 11:01:33;;;;;;;37.55;26.40;;;;;;;;;;4332243;33;20287;-77
2021/07/13 11:04:09;;;;;;;36.47;26.55;;;;;;;;;;4341194;33;20194;-79
2021/07/13 11:06:38;;;;;;;35.50;28.12;;;;;;;;;;4342231;33;20170;-76
2021/07/13 11:09:24;;;;;;;38.53;26.27;;;;;;;;;;4341339;33;20237;-78
2021/07/13 11:11:49;;;;;;;35.83;25.40;;;;;;;;;;4341416;33;20186;-80
2021/07/13 11:14:17;;;;;;;37.17;26.95;;;;;;;;;;4341339;33;20472;-78
2021/07/13 11:16:51;;;;;;;41.35;29.40;;;;;;;;;;4342346;33;20162;-79
2021/07/13 11:19:23;;;;;;;36.42;27.17;;;;;;;;;;4341574;33;20154;-78
2021/07/13 11:21:50;;;;;;;36.55;25.58;;;;;;;;;;4341349;33;20251;-79
2021/07/13 11:24:22;;;;;;;35.80;25.50;;;;;;;;;;4341926;33;20234;-78
2021/07/13 11:26:51;;;;;;;34.85;25.75;;;;;;;;;;4341317;33;20207;-79
2021/07/13 11:29:24;;;;;;;35.78;25.50;;;;;;;;;;4341296;32;20206;-79
2021/07/13 11:31:59;;;;;;;34.83;25.73;;;;;;;;;;4341953;33;20160;-79
2021/07/13 11:34:26;;;;;;;38.45;28.05;;;;;;;;;;4341346;33;20167;-78
2021/07/13 11:36:53;;;;;;;36.17;25.50;;;;;;;;;;4342362;33;20184;-78
2021/07/13 11:39:21;;;;;;;35.38;26.15;;;;;;;;;;4344234;32;20159;-78
2021/07/13 11:41:48;;;;;;;35.05;26.20;;;;;;;;;;4344689;33;20168;-79
2021/07/13 11:44:13;;;;;;;34.38;25.40;;;;;;;;;;4343953;33;20647;-79
2021/07/13 11:46:43;;;;;;;34.97;25.48;;;;;;;;;;4344236;33;20160;-79
2021/07/13 11:49:19;;;;;;;35.80;25.83;;;;;;;;;;4343366;32;20193;-79
2021/07/13 11:51:50;;;;;;;37.05;25.27;;;;;;;;;;4344058;32;20155;-79
2021/07/13 11:54:17;;;;;;;38.67;27.40;;;;;;;;;;4343743;33;20160;-78
2021/07/13 11:56:50;;;;;;;37.10;26.35;;;;;;;;;;4343754;33;20217;-79
2021/07/13 11:59:20;;;;;;;37.53;27.30;;;;;;;;;;4343930;33;20198;-79
2021/07/13 12:01:50;;;;;;;38.08;28.30;;;;;;;;;;4343867;33;20228;-79
2021/07/13 12:04:24;;;;;;;40.47;29.37;;;;;;;;;;4344828;33;20474;-79
2021/07/13 12:07:05;;;;;;;39.10;27.65;;;;;;;;;;4330174;33;20206;-81
2021/07/13 12:09:34;;;;;;;41.28;29.17;;;;;;;;;;4318556;33;20189;-80
2021/07/13 12:12:34;;;;;;;38.95;27.65;;;;;;;;;;4317617;33;20168;-78
2021/07/13 12:14:59;;;;;;;38.13;28.25;;;;;;;;;;4328884;33;20186;-78
2021/07/13 12:17:29;;;;;;;37.63;26.80;;;;;;;;;;4316323;33;20156;-80
2021/07/13 12:19:56;;;;;;;38.25;28.02;;;;;;;;;;4317193;33;20232;-80
2021/07/13 12:25:34;;;;;;;36.47;25.95;;;;;;;;;;4299639;33;20163;-77
2021/07/13 12:28:10;;;;;;;38.97;26.30;;;;;;;;;;4335757;32;20507;-79
2021/07/13 12:30:36;;;;;;;34.95;26.23;;;;;;;;;;4391692;32;20153;-79
2021/07/13 12:33:26;;;;;;;36.95;25.48;;;;;;;;;;4362011;32;20160;-79
2021/07/13 12:36:01;;;;;;;35.17;25.77;;;;;;;;;;4328619;33;20112;-80
2021/07/13 12:38:37;;;;;;;35.80;25.62;;;;;;;;;;4339842;33;20190;-79
2021/07/13 12:44:32;;;;;;;36.63;25.65;;;;;;;;;;4327998;33;20366;-79
2021/07/13 12:47:26;;;;;;;38.13;23.98;;;;;;;;;;4338158;33;20186;-79
2021/07/13 12:50:08;;;;;;;38.95;25.02;;;;;;;;;;4327706;32;20500;-80
2021/07/13 12:52:55;;;;;;;37.95;25.85;;;;;;;;;;4328283;32;20152;-78
2021/07/13 12:55:44;;;;;;;34.85;24.27;;;;;;;;;;4328309;33;20543;-79
2021/07/13 12:58:12;;;;;;;36.15;24.25;;;;;;;;;;4328694;33;20183;-79
2021/07/13 13:00:39;;;;;;;36.63;25.02;;;;;;;;;;4328121;33;20182;-79
2021/07/13 13:03:06;;;;;;;33.03;24.02;;;;;;;;;;4328133;33;20203;-78
2021/07/13 13:05:53;;;;;;;33.72;25.80;;;;;;;;;;4328130;33;20190;-79
2021/07/13 13:08:38;;;;;;;36.85;24.65;;;;;;;;;;4328237;33;20148;-81
2021/07/13 13:11:11;;;;;;;34.33;24.75;;;;;;;;;;4329268;33;20282;-80
2021/07/13 13:13:38;;;;;;;38.10;25.90;;;;;;;;;;4328424;33;20500;-79
2021/07/13 13:16:16;;;;;;;34.33;23.25;;;;;;;;;;4328467;33;20190;-80
2021/07/13 13:18:41;;;;;;;34.58;24.50;;;;;;;;;;4328202;33;20511;-80
2021/07/13 13:21:07;;;;;;;32.22;23.15;;;;;;;;;;4328438;33;20243;-80
2021/07/13 13:23:45;;;;;;;;;;;;;;;;;;;;;
2021/07/13 13:26:14;;;;;;;30.02;22.92;;;;;;;;;;4329485;33;20170;-79
2021/07/13 13:28:40;;;;;;;32.35;22.10;;;;;;;;;;4328303;33;20156;-81
2021/07/13 13:31:05;;;;;;;33.58;21.83;;;;;;;;;;4343567;33;20223;-78
2021/07/13 13:33:32;;;;;;;28.15;20.70;;;;;;;;;;4342620;33;20190;-78
2021/07/13 13:36:30;;;;;;;27.15;20.88;;;;;;;;;;4343564;33;20139;-79
2021/07/13 13:39:21;;;;;;;27.52;19.87;;;;;;;;;;4339616;32;20226;-78
2021/07/13 13:42:09;;;;;;;27.45;20.58;;;;;;;;;;4342343;33;20198;-78
2021/07/13 13:44:35;;;;;;;25.02;19.27;;;;;;;;;;4342600;33;20185;-80
2021/07/13 13:47:04;;;;;;;26.33;20.05;;;;;;;;;;4342450;32;20168;-80
2021/07/13 13:49:29;;;;;;;26.90;20.80;;;;;;;;;;4334317;32;20165;-80
2021/07/13 13:51:55;;;;;;;27.90;19.40;;;;;;;;;;4340056;32;20544;-79
2021/07/13 13:54:33;;;;;;;25.95;18.83;;;;;;;;;;4342425;32;20171;-79
2021/07/13 13:56:59;;;;;;;29.70;19.25;;;;;;;;;;4342654;32;20186;-80
2021/07/13 13:59:26;;;;;;;29.92;19.83;;;;;;;;;;4342235;32;20649;-79
2021/07/13 14:01:51;;;;;;;27.30;18.35;;;;;;;;;;4342333;32;20179;-79
2021/07/13 14:04:17;;;;;;;27.37;19.30;;;;;;;;;;4342453;33;20160;-79
2021/07/13 14:06:42;;;;;;;28.73;19.15;;;;;;;;;;4329720;32;20235;-81
2021/07/13 14:09:07;;;;;;;25.40;19.25;;;;;;;;;;4327251;33;20235;-79
2021/07/13 14:11:55;;;;;;;32.10;19.50;;;;;;;;;;4328935;33;20174;-80
2021/07/13 14:14:18;;;;;;;25.77;17.45;;;;;;;;;;4328445;33;20577;-81
2021/07/13 14:16:43;;;;;;;25.17;19.75;;;;;;;;;;4327596;33;20242;-79
2021/07/13 14:19:09;;;;;;;26.15;19.25;;;;;;;;;;4327534;33;20156;-80
2021/07/13 14:21:35;;;;;;;26.48;19.20;;;;;;;;;;4328515;33;20246;-80
2021/07/13 14:24:00;;;;;;;26.12;20.08;;;;;;;;;;4339940;33;20200;-80
2021/07/13 14:26:25;;;;;;;30.70;19.58;;;;;;;;;;4343855;33;20448;-80
2021/07/13 14:28:50;;;;;;;29.50;19.73;;;;;;;;;;4341926;33;20163;-81
2021/07/13 14:31:21;;;;;;;29.08;20.58;;;;;;;;;;4344073;33;20217;-79
2021/07/13 14:33:47;;;;;;;28.85;18.95;;;;;;;;;;4342222;33;20202;-79
2021/07/13 14:37:10;;;;;;;28.87;20.23;;;;;;;;;;4342242;33;20177;-79
2021/07/13 14:39:10;;;;;;;27.65;20.48;;;;;;;;;;4340238;32;20292;-78
2021/07/13 14:41:37;;;;;;;28.08;19.23;;;;;;;;;;4341744;33;20156;-79
2021/07/13 14:44:02;;;;;;;27.10;19.77;;;;;;;;;;4334885;33;20233;-79
2021/07/13 14:46:27;;;;;;;32.78;21.65;;;;;;;;;;4327015;33;20226;-78
2021/07/13 14:48:53;;;;;;;28.50;20.60;;;;;;;;;;4328348;33;20496;-80
2021/07/13 14:51:21;;;;;;;27.35;17.92;;;;;;;;;;4327040;33;20175;-80
2021/07/13 14:53:46;;;;;;;28.12;19.25;;;;;;;;;;4327027;33;20579;-80
2021/07/13 14:56:15;;;;;;;26.20;18.65;;;;;;;;;;4334673;33;20148;-79
2021/07/13 14:58:46;;;;;;;24.85;18.02;;;;;;;;;;4341508;32;20156;-79
2021/07/13 15:01:14;;;;;;;25.80;18.25;;;;;;;;;;4341797;33;20164;-79